createdAt,value
2022-12-17T00:02:01.280Z,19.90
2022-12-17T00:04:47.757Z,19.13
2022-12-17T00:07:33.824Z,19.65
2022-12-17T00:10:20.420Z,19.13
2022-12-17T00:13:07.043Z,18.52
2022-12-17T00:15:53.648Z,19.92
2022-12-17T00:18:40.691Z,18.67
2022-12-17T00:21:28.101Z,18.25
2022-12-17T00:24:14.253Z,18.95
2022-12-17T00:27:00.710Z,17.77
2022-12-17T00:29:46.713Z,18.75
2022-12-17T00:32:32.900Z,17.83
2022-12-17T00:35:19.208Z,19.23
2022-12-17T00:38:05.840Z,19.23
2022-12-17T00:40:52.689Z,18.38
2022-12-17T00:43:40.340Z,18.25
2022-12-17T00:46:26.418Z,17.30
2022-12-17T00:49:12.505Z,17.15
2022-12-17T00:51:58.739Z,17.20
2022-12-17T00:54:44.709Z,17.80
2022-12-17T00:57:31.175Z,18.40
2022-12-17T01:00:17.572Z,17.63
2022-12-17T01:03:04.929Z,17.42
2022-12-17T01:05:51.265Z,16.08
2022-12-17T01:08:37.304Z,17.30
2022-12-17T01:11:25.081Z,16.48
2022-12-17T01:14:11.900Z,17.33
2022-12-17T01:16:57.998Z,17.35
2022-12-17T01:19:44.409Z,17.00
2022-12-17T01:22:30.904Z,16.67
2022-12-17T01:25:19.399Z,17.23
2022-12-17T01:28:10.073Z,18.17
2022-12-17T01:30:56.388Z,17.50
2022-12-17T01:33:43.061Z,17.17
2022-12-17T01:36:29.139Z,17.80
2022-12-17T01:39:15.582Z,16.88
2022-12-17T01:42:01.994Z,16.85
2022-12-17T01:45:06.540Z,16.40
2022-12-17T01:47:56.465Z,17.90
2022-12-17T01:50:47.807Z,19.08
2022-12-17T01:53:35.373Z,17.48
2022-12-17T01:56:22.171Z,16.60
2022-12-17T01:59:08.335Z,18.30
2022-12-17T02:01:55.206Z,17.42
2022-12-17T02:04:42.597Z,18.25
2022-12-17T02:07:43.081Z,18.70
2022-12-17T02:10:36.965Z,17.48
2022-12-17T02:13:29.760Z,16.05
2022-12-17T02:16:28.666Z,17.42
2022-12-17T02:19:21.278Z,16.38
2022-12-17T02:22:10.488Z,16.95
2022-12-17T02:25:01.574Z,17.50
2022-12-17T02:27:49.411Z,16.38
2022-12-17T02:30:35.943Z,16.88
2022-12-17T02:33:22.687Z,16.95
2022-12-17T02:36:13.165Z,17.20
2022-12-17T02:38:59.371Z,16.95
2022-12-17T02:41:56.709Z,17.08
2022-12-17T02:44:43.358Z,16.58
2022-12-17T02:47:30.699Z,17.52
2022-12-17T02:50:17.075Z,18.08
2022-12-17T02:53:05.684Z,17.20
2022-12-17T02:55:52.471Z,16.90
2022-12-17T02:58:38.875Z,17.00
2022-12-17T03:01:25.358Z,17.83
2022-12-17T03:04:11.533Z,17.50
2022-12-17T03:06:57.671Z,17.42
2022-12-17T03:09:43.672Z,16.75
2022-12-17T03:12:29.773Z,17.08
2022-12-17T03:15:15.845Z,17.50
2022-12-17T03:18:02.268Z,17.20
2022-12-17T03:20:48.401Z,17.10
2022-12-17T03:23:35.024Z,18.08
2022-12-17T03:26:23.081Z,17.63
2022-12-17T03:29:09.372Z,16.65
2022-12-17T03:31:55.856Z,17.65
2022-12-17T03:34:42.344Z,18.52
2022-12-17T03:37:28.603Z,18.38
2022-12-17T03:40:14.720Z,18.30
2022-12-17T03:43:00.820Z,18.27
2022-12-17T03:45:46.797Z,18.55
2022-12-17T03:48:34.183Z,18.52
2022-12-17T03:51:20.709Z,18.55
2022-12-17T03:54:07.442Z,17.83
2022-12-17T03:56:53.979Z,18.33
2022-12-17T03:59:40.572Z,17.20
2022-12-17T04:02:34.233Z,18.05
2022-12-17T04:05:20.666Z,17.45
2022-12-17T04:08:07.423Z,19.00
2022-12-17T04:10:54.082Z,19.70
2022-12-17T04:13:41.576Z,18.55
2022-12-17T04:16:35.982Z,20.50
2022-12-17T04:19:22.052Z,18.88
2022-12-17T04:22:08.633Z,18.52
2022-12-17T04:24:54.877Z,17.45
2022-12-17T04:27:40.965Z,17.17
2022-12-17T04:30:27.688Z,18.25
2022-12-17T04:33:13.720Z,19.42
2022-12-17T04:35:59.768Z,20.52
2022-12-17T04:38:45.873Z,20.08
2022-12-17T04:41:32.028Z,19.50
2022-12-17T04:44:18.141Z,18.88
2022-12-17T04:47:04.296Z,20.00
2022-12-17T04:49:50.355Z,19.17
2022-12-17T04:52:36.839Z,17.60
2022-12-17T04:55:23.211Z,20.30
2022-12-17T04:58:09.327Z,19.25
2022-12-17T05:00:55.446Z,19.92
2022-12-17T05:03:41.850Z,20.58
2022-12-17T05:06:28.177Z,19.35
2022-12-17T05:09:14.329Z,20.60
2022-12-17T05:12:00.481Z,19.85
2022-12-17T05:14:46.622Z,20.88
2022-12-17T05:17:32.799Z,22.40
2022-12-17T05:20:19.170Z,20.60
2022-12-17T05:23:05.312Z,21.23
2022-12-17T05:25:51.441Z,19.52
2022-12-17T05:28:37.708Z,20.80
2022-12-17T05:31:23.999Z,19.40
2022-12-17T05:34:10.276Z,20.90
2022-12-17T05:36:56.433Z,20.73
2022-12-17T05:39:42.849Z,17.85
2022-12-17T05:42:28.825Z,19.73
2022-12-17T05:45:15.151Z,17.90
2022-12-17T05:48:01.293Z,19.17
2022-12-17T05:50:47.574Z,18.23
2022-12-17T05:53:34.268Z,19.25
2022-12-17T05:56:20.766Z,19.13
2022-12-17T05:59:06.858Z,18.42
2022-12-17T06:01:53.183Z,18.75
2022-12-17T06:04:39.462Z,18.55
2022-12-17T06:07:25.589Z,20.15
2022-12-17T06:10:11.724Z,18.48
2022-12-17T06:12:58.145Z,19.35
2022-12-17T06:15:44.350Z,20.60
2022-12-17T06:18:30.588Z,20.20
2022-12-17T06:21:16.793Z,18.95
2022-12-17T06:24:03.048Z,20.00
2022-12-17T06:26:49.179Z,20.00
2022-12-17T06:29:35.238Z,19.85
2022-12-17T06:32:21.730Z,19.48
2022-12-17T06:35:07.922Z,18.85
2022-12-17T06:37:54.059Z,20.40
2022-12-17T06:40:40.190Z,18.80
2022-12-17T06:43:27.765Z,17.00
2022-12-17T06:46:14.029Z,19.42
2022-12-17T06:49:00.606Z,18.38
2022-12-17T06:51:46.747Z,18.83
2022-12-17T06:54:33.220Z,17.85
2022-12-17T06:57:19.629Z,17.88
2022-12-17T07:00:05.672Z,18.92
2022-12-17T07:02:52.119Z,18.02
2022-12-17T07:05:38.696Z,17.73
2022-12-17T07:08:24.731Z,20.13
2022-12-17T07:11:11.001Z,19.27
2022-12-17T07:13:57.256Z,18.23
2022-12-17T07:16:43.458Z,19.08
2022-12-17T07:19:29.682Z,16.77
2022-12-17T07:22:20.308Z,18.17
2022-12-17T07:25:06.459Z,18.02
2022-12-17T07:27:52.558Z,18.00
2022-12-17T07:30:38.670Z,18.67
2022-12-17T07:33:25.779Z,17.42
2022-12-17T07:36:12.533Z,18.77
2022-12-17T07:38:58.990Z,18.70
2022-12-17T07:41:45.126Z,18.85
2022-12-17T07:44:31.057Z,19.80
2022-12-17T07:47:17.261Z,19.08
2022-12-17T07:50:03.314Z,18.35
2022-12-17T07:52:49.473Z,19.25
2022-12-17T07:55:35.487Z,18.83
2022-12-17T07:58:23.631Z,18.05
2022-12-17T08:01:09.679Z,18.83
2022-12-17T08:03:56.599Z,17.10
2022-12-17T08:06:42.631Z,20.20
2022-12-17T08:09:29.091Z,20.92
2022-12-17T08:12:15.386Z,18.48
2022-12-17T08:15:01.751Z,18.35
2022-12-17T08:17:48.153Z,17.98
2022-12-17T08:20:34.487Z,19.08
2022-12-17T08:23:21.708Z,18.70
2022-12-17T08:26:07.887Z,17.02
2022-12-17T08:28:54.367Z,17.30
2022-12-17T08:31:42.207Z,18.88
2022-12-17T08:34:28.736Z,19.55
2022-12-17T08:37:15.233Z,17.75
2022-12-17T08:40:01.605Z,18.98
2022-12-17T08:42:47.931Z,17.17
2022-12-17T08:45:34.367Z,17.23
2022-12-17T08:48:21.675Z,18.08
2022-12-17T08:51:07.856Z,19.55
2022-12-17T08:53:54.000Z,18.48
2022-12-17T08:56:40.311Z,19.48
2022-12-17T08:59:26.767Z,19.58
2022-12-17T09:02:13.090Z,17.15
2022-12-17T09:04:59.356Z,17.33
2022-12-17T09:07:45.505Z,16.80
2022-12-17T09:10:31.624Z,16.13
2022-12-17T09:13:21.026Z,16.38
2022-12-17T09:16:11.218Z,15.88
2022-12-17T09:18:57.702Z,15.80
2022-12-17T09:21:44.064Z,16.88
2022-12-17T09:24:30.624Z,16.42
2022-12-17T09:27:16.755Z,16.83
2022-12-17T09:30:03.023Z,16.85
2022-12-17T09:32:50.270Z,16.60
2022-12-17T09:35:36.430Z,16.75
2022-12-17T09:38:22.564Z,17.40
2022-12-17T09:41:10.568Z,16.55
2022-12-17T09:44:32.209Z,17.83
2022-12-17T09:47:18.527Z,15.57
2022-12-17T09:50:04.548Z,16.35
2022-12-17T09:52:59.119Z,16.05
2022-12-17T09:55:47.505Z,15.90
2022-12-17T09:58:38.808Z,16.48
2022-12-17T10:01:25.843Z,17.08
2022-12-17T10:04:12.167Z,16.90
2022-12-17T10:06:58.508Z,17.00
2022-12-17T10:09:47.084Z,16.42
2022-12-17T10:12:37.635Z,17.60
2022-12-17T10:15:24.620Z,17.38
2022-12-17T10:18:11.015Z,17.77
2022-12-17T10:21:00.360Z,18.05
2022-12-17T10:23:47.828Z,15.85
2022-12-17T10:26:38.177Z,15.88
2022-12-17T10:29:26.009Z,16.20
2022-12-17T10:32:12.665Z,16.13
2022-12-17T10:35:04.935Z,15.60
2022-12-17T10:37:54.375Z,15.13
2022-12-17T10:40:47.706Z,15.95
2022-12-17T10:43:48.402Z,15.45
2022-12-17T10:46:41.665Z,14.55
2022-12-17T10:49:38.846Z,14.27
2022-12-17T10:52:45.347Z,16.02
2022-12-17T10:55:40.107Z,14.77
2022-12-17T10:58:31.385Z,14.32
2022-12-17T11:01:21.805Z,14.48
2022-12-17T11:04:09.709Z,14.90
2022-12-17T11:06:56.870Z,16.23
2022-12-17T11:09:48.731Z,16.15
2022-12-17T11:12:36.313Z,16.52
2022-12-17T11:15:27.104Z,15.90
2022-12-17T11:18:14.411Z,16.08
2022-12-17T11:21:19.733Z,16.33
2022-12-17T11:24:23.018Z,16.55
2022-12-17T11:27:11.335Z,16.40
2022-12-17T11:29:58.948Z,17.63
2022-12-17T11:33:07.632Z,17.00
2022-12-17T11:36:06.047Z,17.45
2022-12-17T11:38:52.433Z,16.52
2022-12-17T11:41:44.776Z,14.65
2022-12-17T11:44:42.611Z,15.18
2022-12-17T11:47:37.846Z,16.58
2022-12-17T11:50:33.278Z,17.75
2022-12-17T11:53:35.073Z,17.08
2022-12-17T11:56:21.508Z,17.95
2022-12-17T11:59:08.131Z,16.60
2022-12-17T12:02:15.944Z,17.58
2022-12-17T12:05:15.360Z,19.15
2022-12-17T12:08:04.973Z,19.27
2022-12-17T12:11:11.256Z,17.90
2022-12-17T12:14:01.088Z,18.15
2022-12-17T12:16:51.663Z,18.85
2022-12-17T12:19:45.324Z,18.75
2022-12-17T12:22:46.696Z,19.88
2022-12-17T12:25:42.273Z,19.63
2022-12-17T12:28:43.540Z,19.65
2022-12-17T12:31:32.882Z,19.45
2022-12-17T12:34:26.442Z,19.35
2022-12-17T12:37:16.997Z,18.40
2022-12-17T12:40:09.607Z,19.17
2022-12-17T12:43:01.126Z,18.70
2022-12-17T12:45:50.617Z,19.10
2022-12-17T12:48:50.372Z,20.00
2022-12-17T12:51:46.196Z,18.52
2022-12-17T12:54:47.235Z,18.70
2022-12-17T12:57:50.832Z,20.38
2022-12-17T13:00:53.265Z,20.02
2022-12-17T13:03:57.763Z,19.20
2022-12-17T13:06:41.368Z,20.13
2022-12-17T13:09:21.205Z,19.55
2022-12-17T13:12:10.583Z,20.80
2022-12-17T13:14:50.647Z,21.83
2022-12-17T13:17:18.552Z,19.38
2022-12-17T13:19:48.080Z,22.02
2022-12-17T13:22:21.752Z,21.48
2022-12-17T13:24:52.346Z,21.45
2022-12-17T13:27:33.329Z,22.60
2022-12-17T13:30:21.550Z,21.38
2022-12-17T13:33:04.408Z,20.42
2022-12-17T13:35:32.341Z,22.23
2022-12-17T13:38:02.747Z,22.20
2022-12-17T13:40:37.967Z,24.15
2022-12-17T13:43:05.599Z,23.13
2022-12-17T13:45:34.925Z,21.30
2022-12-17T13:48:02.552Z,22.25
2022-12-17T13:50:34.431Z,23.15
2022-12-17T13:53:16.033Z,21.95
2022-12-17T13:55:50.363Z,21.40
2022-12-17T13:58:31.775Z,22.23
2022-12-17T14:01:09.975Z,23.67
2022-12-17T14:06:32.905Z,22.50
2022-12-17T14:09:00.691Z,23.27
2022-12-17T14:11:47.715Z,25.75
2022-12-17T14:14:18.174Z,26.95
2022-12-17T14:16:50.616Z,25.92
2022-12-17T14:19:22.106Z,24.63
2022-12-17T14:21:49.785Z,23.60
2022-12-17T14:24:18.591Z,23.25
2022-12-17T14:26:53.156Z,25.48
2022-12-17T14:29:30.239Z,25.60
2022-12-17T14:31:59.140Z,24.63
2022-12-17T14:34:29.176Z,25.33
2022-12-17T14:36:58.660Z,24.38
2022-12-17T14:39:33.852Z,24.75
2022-12-17T14:42:26.789Z,23.73
2022-12-17T14:44:59.509Z,24.65
2022-12-17T14:47:27.651Z,26.05
2022-12-17T14:49:58.722Z,23.95
2022-12-17T14:52:29.469Z,21.83
2022-12-17T14:54:57.020Z,23.38
2022-12-17T14:57:24.915Z,24.73
2022-12-17T14:59:53.880Z,24.55
2022-12-17T15:02:29.704Z,25.67
2022-12-17T15:04:58.510Z,24.95
2022-12-17T15:07:31.482Z,24.50
2022-12-17T15:10:00.878Z,24.33
2022-12-17T15:12:36.372Z,25.67
2022-12-17T15:15:07.096Z,25.35
2022-12-17T15:17:35.102Z,27.67
2022-12-17T15:20:08.025Z,25.70
2022-12-17T15:22:36.441Z,27.38
2022-12-17T15:25:04.249Z,28.38
2022-12-17T15:27:31.904Z,27.92
2022-12-17T15:29:59.702Z,27.45
2022-12-17T15:32:27.331Z,27.20
2022-12-17T15:34:54.966Z,27.40
2022-12-17T15:37:25.977Z,25.73
2022-12-17T15:39:53.686Z,26.33
2022-12-17T15:42:47.333Z,27.10
2022-12-17T15:45:14.868Z,26.90
2022-12-17T15:47:42.484Z,27.55
2022-12-17T15:50:10.416Z,26.65
2022-12-17T15:52:37.974Z,28.98
2022-12-17T15:55:05.756Z,28.98
2022-12-17T15:57:33.298Z,29.25
2022-12-17T16:00:00.803Z,30.40
2022-12-17T16:02:28.467Z,29.20
2022-12-17T16:04:56.281Z,30.40
2022-12-17T16:07:23.839Z,29.98
2022-12-17T16:09:51.373Z,29.65
2022-12-17T16:12:19.010Z,79.07
2022-12-17T16:14:46.577Z,82.22
2022-12-17T16:17:14.346Z,93.25
2022-12-17T16:19:41.894Z,58.47
2022-12-17T16:22:09.580Z,59.78
2022-12-17T16:24:37.178Z,44.47
2022-12-17T16:27:05.035Z,38.10
2022-12-17T16:29:32.612Z,55.22
2022-12-17T16:32:00.986Z,43.08
2022-12-17T16:34:28.923Z,32.42
2022-12-17T16:36:56.466Z,36.20
2022-12-17T16:39:24.040Z,30.48
2022-12-17T16:41:51.563Z,29.77
2022-12-17T16:44:19.104Z,29.25
2022-12-17T16:46:46.845Z,30.02
2022-12-17T16:49:16.826Z,30.95
2022-12-17T16:51:45.545Z,30.58
2022-12-17T16:54:15.089Z,29.70
2022-12-17T16:56:43.284Z,31.30
2022-12-17T16:59:11.572Z,31.92
2022-12-17T17:01:40.518Z,33.00
2022-12-17T17:04:09.048Z,32.55
2022-12-17T17:06:45.083Z,42.67
2022-12-17T17:09:13.294Z,35.78
2022-12-17T17:11:40.866Z,32.35
2022-12-17T17:14:09.024Z,32.88
2022-12-17T17:16:37.174Z,31.58
2022-12-17T17:19:05.252Z,30.05
2022-12-17T17:21:36.904Z,26.40
2022-12-17T17:26:32.926Z,24.23
2022-12-17T17:29:00.852Z,25.50
2022-12-17T17:32:01.206Z,25.55
2022-12-17T17:34:16.332Z,26.38
2022-12-17T17:36:43.968Z,26.73
2022-12-17T17:39:11.716Z,27.55
2022-12-17T17:41:39.300Z,29.48
2022-12-17T17:44:08.415Z,28.98
2022-12-17T17:46:36.405Z,27.75
2022-12-17T17:49:04.865Z,27.10
2022-12-17T17:52:07.732Z,26.23
2022-12-17T17:54:21.108Z,27.23
2022-12-17T17:56:48.625Z,25.70
2022-12-17T17:59:19.142Z,24.23
2022-12-17T18:01:49.307Z,21.88
2022-12-17T18:04:18.911Z,23.15
2022-12-17T18:07:16.134Z,22.35
2022-12-17T18:09:34.816Z,21.90
2022-12-17T18:12:22.933Z,21.90
2022-12-17T18:15:14.214Z,22.02
2022-12-17T18:17:38.044Z,21.85
2022-12-17T18:20:05.848Z,22.55
2022-12-17T18:22:33.377Z,23.73
2022-12-17T18:25:00.981Z,22.77
2022-12-17T18:27:28.504Z,23.45
2022-12-17T18:29:56.396Z,24.55
2022-12-17T18:32:23.983Z,25.08
2022-12-17T18:34:51.574Z,25.45
2022-12-17T18:37:19.129Z,24.33
2022-12-17T18:39:47.308Z,24.15
2022-12-17T18:42:33.560Z,25.65
2022-12-17T18:45:01.155Z,25.25
2022-12-17T18:47:28.765Z,25.13
2022-12-17T18:49:57.476Z,26.52
2022-12-17T18:52:25.192Z,25.20
2022-12-17T18:54:52.774Z,26.52
2022-12-17T18:57:20.302Z,26.50
2022-12-17T18:59:47.814Z,26.48
2022-12-17T19:02:15.559Z,26.75
2022-12-17T19:04:43.267Z,27.35
2022-12-17T19:07:11.003Z,27.65
2022-12-17T19:09:40.388Z,25.35
2022-12-17T19:12:08.888Z,28.70
2022-12-17T19:14:36.647Z,26.92
2022-12-17T19:17:05.848Z,26.70
2022-12-17T19:19:33.730Z,26.20
2022-12-17T19:22:01.973Z,24.60
2022-12-17T19:24:29.559Z,25.80
2022-12-17T19:26:57.154Z,27.50
2022-12-17T19:29:24.755Z,28.55
2022-12-17T19:31:52.406Z,29.33
2022-12-17T19:34:20.116Z,32.83
2022-12-17T19:36:48.152Z,32.08
2022-12-17T19:39:16.835Z,31.70
2022-12-17T19:41:44.550Z,29.50
2022-12-17T19:44:13.469Z,36.58
2022-12-17T19:46:41.368Z,41.22
2022-12-17T19:49:11.229Z,39.33
2022-12-17T19:51:40.297Z,56.17
2022-12-17T19:54:09.195Z,47.47
2022-12-17T19:56:37.444Z,32.63
2022-12-17T19:59:07.557Z,31.55
2022-12-17T20:01:36.727Z,32.20
2022-12-17T20:04:05.247Z,46.30
2022-12-17T20:06:33.964Z,36.72
2022-12-17T20:09:03.588Z,79.25
2022-12-17T20:11:34.280Z,49.67
2022-12-17T20:14:02.114Z,36.50
2022-12-17T20:16:30.450Z,36.83
2022-12-17T20:19:01.255Z,32.85
2022-12-17T20:21:29.186Z,31.10
2022-12-17T20:23:56.989Z,36.67
2022-12-17T20:26:24.990Z,33.33
2022-12-17T20:28:52.564Z,34.05
2022-12-17T20:31:20.187Z,32.15
2022-12-17T20:33:47.774Z,45.65
2022-12-17T20:36:16.821Z,60.70
2022-12-17T20:38:45.036Z,42.42
2022-12-17T20:41:16.184Z,51.45
2022-12-17T20:43:43.954Z,41.78
2022-12-17T20:46:12.096Z,64.13
2022-12-17T20:48:41.249Z,51.90
2022-12-17T20:51:13.361Z,41.55
2022-12-17T20:53:41.477Z,32.28
2022-12-17T20:56:10.266Z,45.30
2022-12-17T20:58:38.688Z,42.05
2022-12-17T21:01:10.895Z,39.20
2022-12-17T21:03:39.118Z,36.40
2022-12-17T21:06:07.771Z,41.88
2022-12-17T21:08:36.163Z,29.35
2022-12-17T21:11:04.006Z,36.03
2022-12-17T21:13:31.835Z,29.02
2022-12-17T21:16:00.385Z,30.88
2022-12-17T21:18:28.878Z,31.73
2022-12-17T21:21:04.717Z,35.75
2022-12-17T21:23:32.840Z,34.65
2022-12-17T21:26:01.640Z,29.50
2022-12-17T21:28:30.661Z,29.67
2022-12-17T21:30:58.437Z,29.15
2022-12-17T21:33:26.149Z,25.13
2022-12-17T21:36:05.901Z,26.45
2022-12-17T21:41:11.220Z,22.73
2022-12-17T21:43:39.820Z,23.95
2022-12-17T21:46:08.386Z,22.98
2022-12-17T21:48:41.608Z,21.40
2022-12-17T21:51:10.573Z,19.70
2022-12-17T21:53:41.981Z,18.42
2022-12-17T21:56:16.848Z,19.85
2022-12-17T21:58:45.580Z,21.42
2022-12-17T22:01:19.023Z,21.45
2022-12-17T22:03:48.414Z,23.67
2022-12-17T22:06:21.988Z,24.27
2022-12-17T22:08:51.095Z,24.88
2022-12-17T22:11:25.099Z,20.33
2022-12-17T22:14:07.364Z,21.25
2022-12-17T22:16:46.595Z,21.45
2022-12-17T22:19:15.980Z,22.27
2022-12-17T22:21:44.983Z,21.58
2022-12-17T22:24:16.721Z,21.40
2022-12-17T22:26:44.567Z,25.73
2022-12-17T22:29:12.314Z,22.88
2022-12-17T22:31:58.632Z,20.83
2022-12-17T22:34:56.531Z,24.08
2022-12-17T22:39:59.493Z,19.98
2022-12-17T22:44:14.236Z,20.98
2022-12-17T22:44:42.079Z,20.85
2022-12-17T22:46:04.257Z,22.02
2022-12-17T22:48:32.661Z,23.23
2022-12-17T22:51:08.881Z,21.35
2022-12-17T22:53:39.660Z,22.77
2022-12-17T22:56:18.569Z,45.22
2022-12-17T22:58:55.680Z,37.33
2022-12-17T23:01:23.637Z,26.85
2022-12-17T23:03:54.770Z,21.52
2022-12-17T23:06:22.539Z,22.77
2022-12-17T23:08:50.473Z,23.77
2022-12-17T23:11:19.392Z,23.10
2022-12-17T23:13:47.072Z,21.23
2022-12-17T23:16:15.998Z,23.92
2022-12-17T23:18:44.111Z,33.42
2022-12-17T23:21:13.049Z,28.98
2022-12-17T23:23:41.044Z,31.85
2022-12-17T23:26:10.132Z,26.77
2022-12-17T23:28:37.726Z,24.30
2022-12-17T23:31:09.761Z,23.40
2022-12-17T23:33:38.161Z,24.23
2022-12-17T23:36:07.299Z,23.75
2022-12-17T23:38:35.209Z,22.25
2022-12-17T23:41:06.997Z,24.58
2022-12-17T23:43:35.040Z,23.77
2022-12-17T23:46:02.652Z,25.88
2022-12-17T23:48:31.643Z,26.67
2022-12-17T23:50:59.556Z,25.45
2022-12-17T23:53:27.806Z,25.70
2022-12-17T23:55:55.351Z,24.08
2022-12-17T23:58:23.180Z,25.60
